Kezdőlap
METAR-TAF:

METAR-TAF

Repülőterek :

Southwest Minnesota Regional Airport (Marshall/Ryan Field)

Marshall, Minnesota, Amerikai Egyesült Államok

földrajzi szélesség: 44-27N, földrajzi hosszúság: 095-49W, magasság: 359 m

Jelenlegi meteorológiai megfigyelések

A jelentés 45 perccel ezelõtt készült, 14:56 UTC
Nyugati szél 7 kt
Hőmérséklet -9°C
Páratartalom 79%
Légköri nyomás 1029 hPa
Látótávolság: 16.1 km
Derült ég

METAR: KMML 061456Z AUTO 28007KT 10SM CLR M09/M12 A3038 RMK AO2 SLP313 T10941117 53009 FZRANO

Idő: 09:41 (15:41 UTC)


TAF: hiányzik

Meteorológiai megfigyelések és előrejelzések több, mint 4000 repülőtéren (METAR és TAF jelentéseket).

A térképen piros és sárga pontok jelzik az elérhető meteorológiai állomásokat.

Mozgassa az egeret a pont fölött, hogy megjelenjen az állomás neve.

Azután kattintson az időjárási megfigyelések és előrejelzések megtekintéséhez.

A térkép megváltoztatása: kattintson a fekete keresztel jelölt zöld gombra ráközelítéshez, a vonallal jelölt zöld gombra távolításhoz, vagy a zöld nyilakra a szomszédos térképek eléréséhez.


METAR-TAF: